sensor_id;sensor_type;location;lat;lon;timestamp;P1;durP1;ratioP1;P2;durP2;ratioP2
966;SDS011;56108;48.730;9.304;2023-12-20T00:01:59;1.38;;;1.15;;
966;SDS011;56108;48.730;9.304;2023-12-20T00:04:10;1.10;;;1.00;;
966;SDS011;56108;48.730;9.304;2023-12-20T00:06:19;1.05;;;1.05;;
966;SDS011;56108;48.730;9.304;2023-12-20T00:08:27;1.13;;;1.10;;
966;SDS011;56108;48.730;9.304;2023-12-20T00:10:36;1.50;;;1.40;;
966;SDS011;56108;48.730;9.304;2023-12-20T00:12:44;2.10;;;1.58;;
966;SDS011;56108;48.730;9.304;2023-12-20T00:14:52;1.52;;;1.42;;
966;SDS011;56108;48.730;9.304;2023-12-20T00:17:00;1.23;;;1.17;;
966;SDS011;56108;48.730;9.304;2023-12-20T00:19:12;0.90;;;0.90;;
966;SDS011;56108;48.730;9.304;2023-12-20T00:21:17;1.00;;;1.00;;
966;SDS011;56108;48.730;9.304;2023-12-20T00:23:26;1.15;;;1.05;;
966;SDS011;56108;48.730;9.304;2023-12-20T00:25:34;1.35;;;1.25;;
966;SDS011;56108;48.730;9.304;2023-12-20T00:27:43;0.95;;;0.85;;
966;SDS011;56108;48.730;9.304;2023-12-20T00:29:53;0.90;;;0.90;;
966;SDS011;56108;48.730;9.304;2023-12-20T00:32:01;1.00;;;1.00;;
966;SDS011;56108;48.730;9.304;2023-12-20T00:34:12;1.20;;;1.02;;
966;SDS011;56108;48.730;9.304;2023-12-20T00:36:20;1.50;;;1.30;;
966;SDS011;56108;48.730;9.304;2023-12-20T00:38:28;1.40;;;1.20;;
966;SDS011;56108;48.730;9.304;2023-12-20T00:40:37;1.30;;;1.20;;
966;SDS011;56108;48.730;9.304;2023-12-20T00:42:45;1.75;;;1.17;;
966;SDS011;56108;48.730;9.304;2023-12-20T00:44:53;1.25;;;1.15;;
966;SDS011;56108;48.730;9.304;2023-12-20T00:46:59;1.13;;;1.13;;
966;SDS011;56108;48.730;9.304;2023-12-20T00:49:07;1.05;;;0.95;;
966;SDS011;56108;48.730;9.304;2023-12-20T00:51:18;1.65;;;1.55;;
966;SDS011;56108;48.730;9.304;2023-12-20T00:53:27;1.55;;;1.45;;
966;SDS011;56108;48.730;9.304;2023-12-20T00:55:32;1.10;;;1.05;;
966;SDS011;56108;48.730;9.304;2023-12-20T00:57:43;1.80;;;1.70;;
966;SDS011;56108;48.730;9.304;2023-12-20T00:59:52;1.35;;;1.25;;
966;SDS011;56108;48.730;9.304;2023-12-20T01:01:58;0.80;;;0.80;;
966;SDS011;56108;48.730;9.304;2023-12-20T01:04:07;1.10;;;1.10;;
966;SDS011;56108;48.730;9.304;2023-12-20T01:06:18;1.35;;;1.30;;
966;SDS011;56108;48.730;9.304;2023-12-20T01:08:29;0.98;;;0.98;;
966;SDS011;56108;48.730;9.304;2023-12-20T01:10:34;0.73;;;0.73;;
966;SDS011;56108;48.730;9.304;2023-12-20T01:12:43;1.02;;;1.02;;
966;SDS011;56108;48.730;9.304;2023-12-20T01:14:49;1.40;;;1.35;;
966;SDS011;56108;48.730;9.304;2023-12-20T01:16:57;0.70;;;0.70;;
966;SDS011;56108;48.730;9.304;2023-12-20T01:19:04;1.00;;;0.98;;
966;SDS011;56108;48.730;9.304;2023-12-20T01:21:12;1.23;;;0.90;;
966;SDS011;56108;48.730;9.304;2023-12-20T01:23:23;0.88;;;0.88;;
966;SDS011;56108;48.730;9.304;2023-12-20T01:25:32;0.85;;;0.65;;
966;SDS011;56108;48.730;9.304;2023-12-20T01:27:40;0.90;;;0.90;;
966;SDS011;56108;48.730;9.304;2023-12-20T01:29:48;1.20;;;1.20;;
966;SDS011;56108;48.730;9.304;2023-12-20T01:31:56;0.70;;;0.70;;
966;SDS011;56108;48.730;9.304;2023-12-20T01:34:05;0.68;;;0.68;;
966;SDS011;56108;48.730;9.304;2023-12-20T01:36:13;0.60;;;0.60;;
966;SDS011;56108;48.730;9.304;2023-12-20T01:38:24;0.70;;;0.60;;
966;SDS011;56108;48.730;9.304;2023-12-20T01:40:32;1.27;;;1.05;;
966;SDS011;56108;48.730;9.304;2023-12-20T01:42:43;0.75;;;0.75;;
966;SDS011;56108;48.730;9.304;2023-12-20T01:44:51;0.43;;;0.43;;
966;SDS011;56108;48.730;9.304;2023-12-20T01:47:00;0.90;;;0.90;;
966;SDS011;56108;48.730;9.304;2023-12-20T01:49:09;0.85;;;0.85;;
966;SDS011;56108;48.730;9.304;2023-12-20T01:51:17;0.90;;;0.70;;
966;SDS011;56108;48.730;9.304;2023-12-20T01:53:29;2.05;;;0.80;;
966;SDS011;56108;48.730;9.304;2023-12-20T01:55:40;1.08;;;0.77;;
966;SDS011;56108;48.730;9.304;2023-12-20T01:57:46;0.98;;;0.98;;
966;SDS011;56108;48.730;9.304;2023-12-20T01:59:55;0.90;;;0.90;;
966;SDS011;56108;48.730;9.304;2023-12-20T02:02:03;0.80;;;0.80;;
966;SDS011;56108;48.730;9.304;2023-12-20T02:04:12;0.40;;;0.40;;
966;SDS011;56108;48.730;9.304;2023-12-20T02:06:21;0.93;;;0.93;;
966;SDS011;56108;48.730;9.304;2023-12-20T02:08:33;0.82;;;0.82;;
966;SDS011;56108;48.730;9.304;2023-12-20T02:10:44;0.52;;;0.52;;
966;SDS011;56108;48.730;9.304;2023-12-20T02:12:52;0.80;;;0.80;;
966;SDS011;56108;48.730;9.304;2023-12-20T02:14:58;0.90;;;0.90;;
966;SDS011;56108;48.730;9.304;2023-12-20T02:17:06;0.82;;;0.82;;
966;SDS011;56108;48.730;9.304;2023-12-20T02:19:15;0.80;;;0.80;;
966;SDS011;56108;48.730;9.304;2023-12-20T02:21:31;1.15;;;1.05;;
966;SDS011;56108;48.730;9.304;2023-12-20T02:23:40;0.63;;;0.63;;
966;SDS011;56108;48.730;9.304;2023-12-20T02:25:48;0.88;;;0.88;;
966;SDS011;56108;48.730;9.304;2023-12-20T02:27:56;1.00;;;1.00;;
966;SDS011;56108;48.730;9.304;2023-12-20T02:30:05;1.77;;;1.23;;
966;SDS011;56108;48.730;9.304;2023-12-20T02:32:14;1.20;;;1.10;;
966;SDS011;56108;48.730;9.304;2023-12-20T02:34:24;1.10;;;0.93;;
966;SDS011;56108;48.730;9.304;2023-12-20T02:36:32;1.10;;;1.10;;
966;SDS011;56108;48.730;9.304;2023-12-20T02:38:41;2.25;;;2.10;;
966;SDS011;56108;48.730;9.304;2023-12-20T02:40:49;2.75;;;2.55;;
966;SDS011;56108;48.730;9.304;2023-12-20T02:42:58;3.20;;;2.92;;
966;SDS011;56108;48.730;9.304;2023-12-20T02:45:08;4.72;;;2.70;;
966;SDS011;56108;48.730;9.304;2023-12-20T02:47:16;3.28;;;2.70;;
966;SDS011;56108;48.730;9.304;2023-12-20T02:49:22;2.08;;;1.98;;
966;SDS011;56108;48.730;9.304;2023-12-20T02:51:34;2.40;;;2.25;;
966;SDS011;56108;48.730;9.304;2023-12-20T02:53:43;1.23;;;1.20;;
966;SDS011;56108;48.730;9.304;2023-12-20T02:55:52;1.50;;;1.40;;
966;SDS011;56108;48.730;9.304;2023-12-20T02:58:00;1.85;;;1.35;;
966;SDS011;56108;48.730;9.304;2023-12-20T03:00:09;1.27;;;1.17;;
966;SDS011;56108;48.730;9.304;2023-12-20T03:02:18;1.10;;;1.08;;
966;SDS011;56108;48.730;9.304;2023-12-20T03:04:28;1.10;;;0.68;;
966;SDS011;56108;48.730;9.304;2023-12-20T03:06:39;0.90;;;0.90;;
966;SDS011;56108;48.730;9.304;2023-12-20T03:08:47;0.85;;;0.85;;
966;SDS011;56108;48.730;9.304;2023-12-20T03:10:55;0.85;;;0.85;;
966;SDS011;56108;48.730;9.304;2023-12-20T03:13:03;0.68;;;0.68;;
966;SDS011;56108;48.730;9.304;2023-12-20T03:15:12;0.90;;;0.90;;
966;SDS011;56108;48.730;9.304;2023-12-20T03:17:20;0.50;;;0.50;;
966;SDS011;56108;48.730;9.304;2023-12-20T03:19:28;0.60;;;0.60;;
966;SDS011;56108;48.730;9.304;2023-12-20T03:21:39;0.93;;;0.93;;
966;SDS011;56108;48.730;9.304;2023-12-20T03:23:48;0.50;;;0.50;;
966;SDS011;56108;48.730;9.304;2023-12-20T03:25:56;1.05;;;0.55;;
966;SDS011;56108;48.730;9.304;2023-12-20T03:28:05;0.93;;;0.93;;
966;SDS011;56108;48.730;9.304;2023-12-20T03:30:14;1.10;;;1.00;;
966;SDS011;56108;48.730;9.304;2023-12-20T03:32:22;1.40;;;0.73;;
966;SDS011;56108;48.730;9.304;2023-12-20T03:34:31;1.17;;;0.88;;
966;SDS011;56108;48.730;9.304;2023-12-20T03:36:42;0.65;;;0.65;;
966;SDS011;56108;48.730;9.304;2023-12-20T03:38:52;0.60;;;0.55;;
966;SDS011;56108;48.730;9.304;2023-12-20T03:41:01;0.80;;;0.80;;
966;SDS011;56108;48.730;9.304;2023-12-20T03:43:11;0.85;;;0.85;;
966;SDS011;56108;48.730;9.304;2023-12-20T03:45:19;1.00;;;1.00;;
966;SDS011;56108;48.730;9.304;2023-12-20T03:47:27;0.60;;;0.60;;
966;SDS011;56108;48.730;9.304;2023-12-20T03:49:35;0.68;;;0.60;;
966;SDS011;56108;48.730;9.304;2023-12-20T03:51:47;0.70;;;0.70;;
966;SDS011;56108;48.730;9.304;2023-12-20T03:53:55;0.80;;;0.70;;
966;SDS011;56108;48.730;9.304;2023-12-20T03:56:05;0.52;;;0.52;;
966;SDS011;56108;48.730;9.304;2023-12-20T03:58:14;0.50;;;0.50;;
966;SDS011;56108;48.730;9.304;2023-12-20T04:00:22;0.40;;;0.40;;
966;SDS011;56108;48.730;9.304;2023-12-20T04:02:29;0.60;;;0.60;;
966;SDS011;56108;48.730;9.304;2023-12-20T04:04:37;0.55;;;0.55;;
966;SDS011;56108;48.730;9.304;2023-12-20T04:06:49;0.60;;;0.60;;
966;SDS011;56108;48.730;9.304;2023-12-20T04:09:00;0.68;;;0.68;;
966;SDS011;56108;48.730;9.304;2023-12-20T04:11:08;0.75;;;0.60;;
966;SDS011;56108;48.730;9.304;2023-12-20T04:13:13;0.60;;;0.60;;
966;SDS011;56108;48.730;9.304;2023-12-20T04:15:22;0.40;;;0.40;;
966;SDS011;56108;48.730;9.304;2023-12-20T04:17:30;0.60;;;0.60;;
966;SDS011;56108;48.730;9.304;2023-12-20T04:19:39;0.60;;;0.60;;
966;SDS011;56108;48.730;9.304;2023-12-20T04:21:51;0.50;;;0.50;;
966;SDS011;56108;48.730;9.304;2023-12-20T04:23:57;0.70;;;0.70;;
966;SDS011;56108;48.730;9.304;2023-12-20T04:26:05;0.40;;;0.40;;
966;SDS011;56108;48.730;9.304;2023-12-20T04:28:13;0.70;;;0.70;;
966;SDS011;56108;48.730;9.304;2023-12-20T04:30:21;0.50;;;0.40;;
966;SDS011;56108;48.730;9.304;2023-12-20T04:32:27;0.65;;;0.65;;
966;SDS011;56108;48.730;9.304;2023-12-20T04:34:36;0.60;;;0.60;;
966;SDS011;56108;48.730;9.304;2023-12-20T04:36:45;0.65;;;0.65;;
966;SDS011;56108;48.730;9.304;2023-12-20T04:38:56;0.40;;;0.40;;
966;SDS011;56108;48.730;9.304;2023-12-20T04:41:04;0.57;;;0.57;;
966;SDS011;56108;48.730;9.304;2023-12-20T04:43:10;0.40;;;0.40;;
966;SDS011;56108;48.730;9.304;2023-12-20T04:45:18;0.60;;;0.60;;
966;SDS011;56108;48.730;9.304;2023-12-20T04:47:24;0.63;;;0.60;;
966;SDS011;56108;48.730;9.304;2023-12-20T04:49:33;0.95;;;0.95;;
966;SDS011;56108;48.730;9.304;2023-12-20T04:51:41;1.02;;;1.02;;
966;SDS011;56108;48.730;9.304;2023-12-20T04:53:47;1.00;;;1.00;;
966;SDS011;56108;48.730;9.304;2023-12-20T04:55:58;1.05;;;1.05;;
966;SDS011;56108;48.730;9.304;2023-12-20T04:58:06;0.75;;;0.75;;
966;SDS011;56108;48.730;9.304;2023-12-20T05:00:15;0.80;;;0.80;;
966;SDS011;56108;48.730;9.304;2023-12-20T05:02:24;0.40;;;0.40;;
966;SDS011;56108;48.730;9.304;2023-12-20T05:04:32;1.38;;;0.60;;
966;SDS011;56108;48.730;9.304;2023-12-20T05:06:41;0.30;;;0.30;;
966;SDS011;56108;48.730;9.304;2023-12-20T05:08:49;0.70;;;0.70;;
966;SDS011;56108;48.730;9.304;2023-12-20T05:11:00;0.57;;;0.57;;
966;SDS011;56108;48.730;9.304;2023-12-20T05:13:09;0.52;;;0.52;;
966;SDS011;56108;48.730;9.304;2023-12-20T05:15:17;0.68;;;0.68;;
966;SDS011;56108;48.730;9.304;2023-12-20T05:17:25;1.02;;;1.02;;
966;SDS011;56108;48.730;9.304;2023-12-20T05:19:34;0.90;;;0.90;;
966;SDS011;56108;48.730;9.304;2023-12-20T05:21:43;1.45;;;1.30;;
966;SDS011;56108;48.730;9.304;2023-12-20T05:23:51;2.30;;;1.13;;
966;SDS011;56108;48.730;9.304;2023-12-20T05:26:02;1.70;;;1.38;;
966;SDS011;56108;48.730;9.304;2023-12-20T05:28:11;1.90;;;1.80;;
966;SDS011;56108;48.730;9.304;2023-12-20T05:30:19;1.80;;;1.67;;
966;SDS011;56108;48.730;9.304;2023-12-20T05:32:27;1.83;;;1.73;;
966;SDS011;56108;48.730;9.304;2023-12-20T05:34:33;2.15;;;1.90;;
966;SDS011;56108;48.730;9.304;2023-12-20T05:36:41;2.75;;;1.90;;
966;SDS011;56108;48.730;9.304;2023-12-20T05:38:50;1.27;;;1.17;;
966;SDS011;56108;48.730;9.304;2023-12-20T05:40:55;2.45;;;2.20;;
966;SDS011;56108;48.730;9.304;2023-12-20T05:43:06;1.55;;;1.45;;
966;SDS011;56108;48.730;9.304;2023-12-20T05:45:15;2.25;;;1.48;;
966;SDS011;56108;48.730;9.304;2023-12-20T05:47:23;1.80;;;1.70;;
966;SDS011;56108;48.730;9.304;2023-12-20T05:49:31;3.67;;;2.65;;
966;SDS011;56108;48.730;9.304;2023-12-20T05:51:37;2.50;;;2.30;;
966;SDS011;56108;48.730;9.304;2023-12-20T05:53:46;2.53;;;2.33;;
966;SDS011;56108;48.730;9.304;2023-12-20T05:55:54;2.33;;;2.22;;
966;SDS011;56108;48.730;9.304;2023-12-20T05:58:00;3.25;;;2.67;;
966;SDS011;56108;48.730;9.304;2023-12-20T06:00:12;3.47;;;2.70;;
966;SDS011;56108;48.730;9.304;2023-12-20T06:02:21;3.08;;;2.83;;
966;SDS011;56108;48.730;9.304;2023-12-20T06:04:29;2.72;;;2.53;;
966;SDS011;56108;48.730;9.304;2023-12-20T06:06:40;2.28;;;2.15;;
966;SDS011;56108;48.730;9.304;2023-12-20T06:08:50;1.10;;;1.10;;
966;SDS011;56108;48.730;9.304;2023-12-20T06:10:58;1.00;;;1.00;;
966;SDS011;56108;48.730;9.304;2023-12-20T06:13:07;0.90;;;0.90;;
966;SDS011;56108;48.730;9.304;2023-12-20T06:15:19;0.65;;;0.65;;
966;SDS011;56108;48.730;9.304;2023-12-20T06:17:28;1.70;;;1.00;;
966;SDS011;56108;48.730;9.304;2023-12-20T06:19:37;1.02;;;0.93;;
966;SDS011;56108;48.730;9.304;2023-12-20T06:21:48;0.80;;;0.80;;
966;SDS011;56108;48.730;9.304;2023-12-20T06:23:58;0.80;;;0.80;;
966;SDS011;56108;48.730;9.304;2023-12-20T06:26:07;1.00;;;1.00;;
966;SDS011;56108;48.730;9.304;2023-12-20T06:28:15;0.75;;;0.75;;
966;SDS011;56108;48.730;9.304;2023-12-20T06:30:26;0.60;;;0.60;;
966;SDS011;56108;48.730;9.304;2023-12-20T06:32:37;0.80;;;0.80;;
966;SDS011;56108;48.730;9.304;2023-12-20T06:34:47;2.05;;;0.70;;
966;SDS011;56108;48.730;9.304;2023-12-20T06:36:55;2.30;;;2.10;;
966;SDS011;56108;48.730;9.304;2023-12-20T06:39:03;5.25;;;4.75;;
966;SDS011;56108;48.730;9.304;2023-12-20T06:41:13;5.25;;;4.15;;
966;SDS011;56108;48.730;9.304;2023-12-20T06:43:20;4.93;;;4.43;;
966;SDS011;56108;48.730;9.304;2023-12-20T06:45:49;2.45;;;2.25;;
966;SDS011;56108;48.730;9.304;2023-12-20T06:47:58;1.60;;;1.50;;
966;SDS011;56108;48.730;9.304;2023-12-20T06:50:07;1.63;;;1.35;;
966;SDS011;56108;48.730;9.304;2023-12-20T06:52:15;1.60;;;1.50;;
966;SDS011;56108;48.730;9.304;2023-12-20T06:54:24;1.30;;;1.20;;
966;SDS011;56108;48.730;9.304;2023-12-20T06:56:32;1.63;;;1.48;;
966;SDS011;56108;48.730;9.304;2023-12-20T06:58:41;0.90;;;0.90;;
966;SDS011;56108;48.730;9.304;2023-12-20T07:00:52;0.82;;;0.82;;
966;SDS011;56108;48.730;9.304;2023-12-20T07:03:01;1.10;;;1.10;;
966;SDS011;56108;48.730;9.304;2023-12-20T07:05:16;0.85;;;0.80;;
966;SDS011;56108;48.730;9.304;2023-12-20T07:07:25;1.30;;;1.30;;
966;SDS011;56108;48.730;9.304;2023-12-20T07:09:38;0.90;;;0.90;;
966;SDS011;56108;48.730;9.304;2023-12-20T07:11:49;0.90;;;0.90;;
966;SDS011;56108;48.730;9.304;2023-12-20T07:13:57;1.10;;;1.10;;
966;SDS011;56108;48.730;9.304;2023-12-20T07:16:09;1.13;;;1.13;;
966;SDS011;56108;48.730;9.304;2023-12-20T07:18:14;1.67;;;1.58;;
966;SDS011;56108;48.730;9.304;2023-12-20T07:20:23;1.13;;;1.13;;
966;SDS011;56108;48.730;9.304;2023-12-20T07:22:31;1.08;;;1.08;;
966;SDS011;56108;48.730;9.304;2023-12-20T07:24:39;2.15;;;2.03;;
966;SDS011;56108;48.730;9.304;2023-12-20T07:26:47;1.45;;;1.35;;
966;SDS011;56108;48.730;9.304;2023-12-20T07:28:56;0.90;;;0.90;;
966;SDS011;56108;48.730;9.304;2023-12-20T07:31:05;1.42;;;1.33;;
966;SDS011;56108;48.730;9.304;2023-12-20T07:33:16;1.25;;;1.15;;
966;SDS011;56108;48.730;9.304;2023-12-20T07:35:24;1.02;;;1.02;;
966;SDS011;56108;48.730;9.304;2023-12-20T07:37:33;1.27;;;1.27;;
966;SDS011;56108;48.730;9.304;2023-12-20T07:39:41;1.23;;;1.17;;
966;SDS011;56108;48.730;9.304;2023-12-20T07:41:50;1.25;;;1.23;;
966;SDS011;56108;48.730;9.304;2023-12-20T07:43:58;1.60;;;1.50;;
966;SDS011;56108;48.730;9.304;2023-12-20T07:46:06;4.47;;;3.17;;
966;SDS011;56108;48.730;9.304;2023-12-20T07:48:19;1.50;;;1.40;;
966;SDS011;56108;48.730;9.304;2023-12-20T07:50:27;2.22;;;2.10;;
966;SDS011;56108;48.730;9.304;2023-12-20T07:52:35;2.30;;;2.10;;
966;SDS011;56108;48.730;9.304;2023-12-20T07:54:43;2.35;;;2.10;;
966;SDS011;56108;48.730;9.304;2023-12-20T07:56:52;3.15;;;2.83;;
966;SDS011;56108;48.730;9.304;2023-12-20T07:58:57;4.55;;;4.25;;
966;SDS011;56108;48.730;9.304;2023-12-20T08:01:06;7.13;;;2.67;;
966;SDS011;56108;48.730;9.304;2023-12-20T08:03:14;3.00;;;2.70;;
966;SDS011;56108;48.730;9.304;2023-12-20T08:05:25;2.83;;;2.60;;
966;SDS011;56108;48.730;9.304;2023-12-20T08:07:34;2.45;;;2.35;;
966;SDS011;56108;48.730;9.304;2023-12-20T08:09:42;2.13;;;1.98;;
966;SDS011;56108;48.730;9.304;2023-12-20T08:11:50;4.72;;;3.10;;
966;SDS011;56108;48.730;9.304;2023-12-20T08:13:59;3.38;;;3.08;;
966;SDS011;56108;48.730;9.304;2023-12-20T08:16:07;2.65;;;2.17;;
966;SDS011;56108;48.730;9.304;2023-12-20T08:18:18;2.85;;;2.58;;
966;SDS011;56108;48.730;9.304;2023-12-20T08:20:30;2.70;;;2.47;;
966;SDS011;56108;48.730;9.304;2023-12-20T08:22:45;2.38;;;2.13;;
966;SDS011;56108;48.730;9.304;2023-12-20T08:24:53;2.33;;;2.13;;
966;SDS011;56108;48.730;9.304;2023-12-20T08:27:02;2.90;;;2.70;;
966;SDS011;56108;48.730;9.304;2023-12-20T08:29:12;2.15;;;2.05;;
966;SDS011;56108;48.730;9.304;2023-12-20T08:31:20;2.30;;;2.10;;
966;SDS011;56108;48.730;9.304;2023-12-20T08:33:29;3.05;;;2.60;;
966;SDS011;56108;48.730;9.304;2023-12-20T08:35:40;2.85;;;2.65;;
966;SDS011;56108;48.730;9.304;2023-12-20T08:37:49;2.80;;;2.60;;
966;SDS011;56108;48.730;9.304;2023-12-20T08:39:57;3.13;;;2.88;;
966;SDS011;56108;48.730;9.304;2023-12-20T08:42:05;6.00;;;2.80;;
966;SDS011;56108;48.730;9.304;2023-12-20T08:44:14;3.08;;;2.80;;
966;SDS011;56108;48.730;9.304;2023-12-20T08:46:22;3.45;;;3.00;;
966;SDS011;56108;48.730;9.304;2023-12-20T08:48:30;5.10;;;3.17;;
966;SDS011;56108;48.730;9.304;2023-12-20T08:50:41;2.83;;;2.63;;
966;SDS011;56108;48.730;9.304;2023-12-20T08:52:50;3.05;;;2.85;;
966;SDS011;56108;48.730;9.304;2023-12-20T08:54:59;3.75;;;3.20;;
966;SDS011;56108;48.730;9.304;2023-12-20T08:57:07;3.33;;;3.03;;
966;SDS011;56108;48.730;9.304;2023-12-20T08:59:16;3.25;;;2.50;;
966;SDS011;56108;48.730;9.304;2023-12-20T09:01:24;2.45;;;2.25;;
966;SDS011;56108;48.730;9.304;2023-12-20T09:03:32;2.65;;;2.45;;
966;SDS011;56108;48.730;9.304;2023-12-20T09:05:43;2.50;;;2.05;;
966;SDS011;56108;48.730;9.304;2023-12-20T09:07:52;2.10;;;1.92;;
966;SDS011;56108;48.730;9.304;2023-12-20T09:10:00;6.15;;;4.15;;
966;SDS011;56108;48.730;9.304;2023-12-20T09:12:08;3.60;;;3.20;;
966;SDS011;56108;48.730;9.304;2023-12-20T09:14:17;3.22;;;2.95;;
966;SDS011;56108;48.730;9.304;2023-12-20T09:16:25;2.80;;;2.60;;
966;SDS011;56108;48.730;9.304;2023-12-20T09:18:34;3.22;;;2.60;;
966;SDS011;56108;48.730;9.304;2023-12-20T09:20:45;3.35;;;2.83;;
966;SDS011;56108;48.730;9.304;2023-12-20T09:22:54;7.68;;;2.65;;
966;SDS011;56108;48.730;9.304;2023-12-20T09:25:03;2.42;;;2.22;;
966;SDS011;56108;48.730;9.304;2023-12-20T09:27:12;3.53;;;2.47;;
966;SDS011;56108;48.730;9.304;2023-12-20T09:29:20;3.15;;;2.53;;
966;SDS011;56108;48.730;9.304;2023-12-20T09:31:29;2.70;;;2.50;;
966;SDS011;56108;48.730;9.304;2023-12-20T09:33:38;3.47;;;1.92;;
966;SDS011;56108;48.730;9.304;2023-12-20T09:35:50;3.17;;;2.25;;
966;SDS011;56108;48.730;9.304;2023-12-20T09:37:58;2.05;;;1.80;;
966;SDS011;56108;48.730;9.304;2023-12-20T09:40:07;2.47;;;2.28;;
966;SDS011;56108;48.730;9.304;2023-12-20T09:42:20;3.33;;;2.42;;
966;SDS011;56108;48.730;9.304;2023-12-20T09:44:33;2.25;;;2.15;;
966;SDS011;56108;48.730;9.304;2023-12-20T09:46:43;2.30;;;2.20;;
966;SDS011;56108;48.730;9.304;2023-12-20T09:48:52;1.80;;;1.70;;
966;SDS011;56108;48.730;9.304;2023-12-20T09:51:04;2.38;;;1.23;;
966;SDS011;56108;48.730;9.304;2023-12-20T09:53:14;1.52;;;1.42;;
966;SDS011;56108;48.730;9.304;2023-12-20T09:55:24;2.50;;;2.30;;
966;SDS011;56108;48.730;9.304;2023-12-20T09:57:35;1.90;;;1.20;;
966;SDS011;56108;48.730;9.304;2023-12-20T09:59:43;1.17;;;1.08;;
966;SDS011;56108;48.730;9.304;2023-12-20T10:01:51;1.52;;;1.33;;
966;SDS011;56108;48.730;9.304;2023-12-20T10:04:04;4.90;;;1.90;;
966;SDS011;56108;48.730;9.304;2023-12-20T10:06:35;1.20;;;1.20;;
966;SDS011;56108;48.730;9.304;2023-12-20T10:08:43;1.70;;;1.35;;
966;SDS011;56108;48.730;9.304;2023-12-20T10:10:51;1.00;;;1.00;;
966;SDS011;56108;48.730;9.304;2023-12-20T10:13:03;1.40;;;1.30;;
966;SDS011;56108;48.730;9.304;2023-12-20T10:15:14;1.52;;;1.42;;
966;SDS011;56108;48.730;9.304;2023-12-20T10:17:22;2.78;;;1.10;;
966;SDS011;56108;48.730;9.304;2023-12-20T10:19:34;3.53;;;1.10;;
966;SDS011;56108;48.730;9.304;2023-12-20T10:21:44;1.15;;;1.13;;
966;SDS011;56108;48.730;9.304;2023-12-20T10:23:53;1.20;;;1.10;;
966;SDS011;56108;48.730;9.304;2023-12-20T10:26:02;1.20;;;1.20;;
966;SDS011;56108;48.730;9.304;2023-12-20T10:28:12;1.85;;;1.55;;
966;SDS011;56108;48.730;9.304;2023-12-20T10:30:24;2.28;;;1.30;;
966;SDS011;56108;48.730;9.304;2023-12-20T10:32:32;2.17;;;0.93;;
966;SDS011;56108;48.730;9.304;2023-12-20T10:34:40;2.70;;;1.38;;
966;SDS011;56108;48.730;9.304;2023-12-20T10:36:52;1.85;;;1.20;;
966;SDS011;56108;48.730;9.304;2023-12-20T10:39:01;0.80;;;0.80;;
966;SDS011;56108;48.730;9.304;2023-12-20T10:41:10;1.33;;;1.33;;
966;SDS011;56108;48.730;9.304;2023-12-20T10:43:21;1.88;;;1.67;;
966;SDS011;56108;48.730;9.304;2023-12-20T10:45:32;3.63;;;1.20;;
966;SDS011;56108;48.730;9.304;2023-12-20T10:47:40;2.10;;;1.48;;
966;SDS011;56108;48.730;9.304;2023-12-20T10:49:52;1.10;;;1.10;;
966;SDS011;56108;48.730;9.304;2023-12-20T10:52:01;4.65;;;0.90;;
966;SDS011;56108;48.730;9.304;2023-12-20T10:54:11;2.05;;;1.13;;
966;SDS011;56108;48.730;9.304;2023-12-20T10:56:20;5.75;;;1.73;;
966;SDS011;56108;48.730;9.304;2023-12-20T10:58:28;0.88;;;0.88;;
966;SDS011;56108;48.730;9.304;2023-12-20T11:00:40;2.65;;;1.20;;
966;SDS011;56108;48.730;9.304;2023-12-20T11:02:51;1.88;;;1.02;;
966;SDS011;56108;48.730;9.304;2023-12-20T11:05:03;1.95;;;0.95;;
966;SDS011;56108;48.730;9.304;2023-12-20T11:07:23;0.80;;;0.80;;
966;SDS011;56108;48.730;9.304;2023-12-20T11:09:41;1.98;;;1.45;;
966;SDS011;56108;48.730;9.304;2023-12-20T11:11:56;1.48;;;1.38;;
966;SDS011;56108;48.730;9.304;2023-12-20T11:14:14;0.93;;;0.85;;
966;SDS011;56108;48.730;9.304;2023-12-20T11:16:26;0.95;;;0.85;;
966;SDS011;56108;48.730;9.304;2023-12-20T11:18:49;1.30;;;1.15;;
966;SDS011;56108;48.730;9.304;2023-12-20T11:21:00;1.33;;;0.80;;
966;SDS011;56108;48.730;9.304;2023-12-20T11:23:12;1.48;;;1.00;;
966;SDS011;56108;48.730;9.304;2023-12-20T11:25:21;1.40;;;1.27;;
966;SDS011;56108;48.730;9.304;2023-12-20T11:27:30;1.65;;;1.55;;
966;SDS011;56108;48.730;9.304;2023-12-20T11:29:39;1.30;;;1.20;;
966;SDS011;56108;48.730;9.304;2023-12-20T11:31:47;1.35;;;1.25;;
966;SDS011;56108;48.730;9.304;2023-12-20T11:33:55;2.13;;;1.17;;
966;SDS011;56108;48.730;9.304;2023-12-20T11:36:21;2.05;;;1.50;;
966;SDS011;56108;48.730;9.304;2023-12-20T11:38:38;2.05;;;0.90;;
966;SDS011;56108;48.730;9.304;2023-12-20T11:40:44;1.30;;;1.15;;
966;SDS011;56108;48.730;9.304;2023-12-20T11:42:52;1.63;;;1.52;;
966;SDS011;56108;48.730;9.304;2023-12-20T11:44:59;1.63;;;1.52;;
966;SDS011;56108;48.730;9.304;2023-12-20T11:47:09;1.05;;;1.05;;
966;SDS011;56108;48.730;9.304;2023-12-20T11:49:22;1.67;;;1.30;;
966;SDS011;56108;48.730;9.304;2023-12-20T11:51:34;1.42;;;1.05;;
966;SDS011;56108;48.730;9.304;2023-12-20T11:53:45;3.60;;;1.23;;
966;SDS011;56108;48.730;9.304;2023-12-20T11:55:59;1.23;;;1.13;;
966;SDS011;56108;48.730;9.304;2023-12-20T11:58:08;1.42;;;1.33;;
966;SDS011;56108;48.730;9.304;2023-12-20T12:00:18;2.25;;;1.40;;
966;SDS011;56108;48.730;9.304;2023-12-20T12:02:27;0.95;;;0.95;;
966;SDS011;56108;48.730;9.304;2023-12-20T12:04:32;1.17;;;0.93;;
966;SDS011;56108;48.730;9.304;2023-12-20T12:06:43;2.70;;;1.33;;
966;SDS011;56108;48.730;9.304;2023-12-20T12:08:51;0.90;;;0.90;;
966;SDS011;56108;48.730;9.304;2023-12-20T12:11:00;3.35;;;2.67;;
966;SDS011;56108;48.730;9.304;2023-12-20T12:13:08;1.38;;;1.27;;
966;SDS011;56108;48.730;9.304;2023-12-20T12:15:19;2.25;;;1.58;;
966;SDS011;56108;48.730;9.304;2023-12-20T12:17:26;1.48;;;1.02;;
966;SDS011;56108;48.730;9.304;2023-12-20T12:19:40;1.70;;;1.60;;
966;SDS011;56108;48.730;9.304;2023-12-20T12:21:50;1.02;;;1.02;;
966;SDS011;56108;48.730;9.304;2023-12-20T12:24:09;0.77;;;0.77;;
966;SDS011;56108;48.730;9.304;2023-12-20T12:26:19;1.60;;;1.50;;
966;SDS011;56108;48.730;9.304;2023-12-20T12:28:28;1.13;;;1.02;;
966;SDS011;56108;48.730;9.304;2023-12-20T12:30:39;2.97;;;1.60;;
966;SDS011;56108;48.730;9.304;2023-12-20T12:32:57;2.30;;;1.40;;
966;SDS011;56108;48.730;9.304;2023-12-20T12:35:07;1.17;;;1.10;;
966;SDS011;56108;48.730;9.304;2023-12-20T12:37:16;3.90;;;1.55;;
966;SDS011;56108;48.730;9.304;2023-12-20T12:39:27;1.40;;;1.30;;
966;SDS011;56108;48.730;9.304;2023-12-20T12:41:39;3.20;;;1.67;;
966;SDS011;56108;48.730;9.304;2023-12-20T12:43:48;2.88;;;1.77;;
966;SDS011;56108;48.730;9.304;2023-12-20T12:45:56;3.85;;;1.52;;
966;SDS011;56108;48.730;9.304;2023-12-20T12:48:06;2.90;;;1.30;;
966;SDS011;56108;48.730;9.304;2023-12-20T12:50:13;1.83;;;1.50;;
966;SDS011;56108;48.730;9.304;2023-12-20T12:52:22;2.95;;;1.35;;
966;SDS011;56108;48.730;9.304;2023-12-20T12:54:34;5.10;;;1.70;;
966;SDS011;56108;48.730;9.304;2023-12-20T12:56:42;1.92;;;1.52;;
966;SDS011;56108;48.730;9.304;2023-12-20T12:58:56;1.40;;;1.30;;
966;SDS011;56108;48.730;9.304;2023-12-20T13:01:04;5.50;;;0.90;;
966;SDS011;56108;48.730;9.304;2023-12-20T13:03:15;3.10;;;1.33;;
966;SDS011;56108;48.730;9.304;2023-12-20T13:05:24;1.83;;;1.15;;
966;SDS011;56108;48.730;9.304;2023-12-20T13:07:33;2.85;;;1.50;;
966;SDS011;56108;48.730;9.304;2023-12-20T13:09:45;2.25;;;1.08;;
966;SDS011;56108;48.730;9.304;2023-12-20T13:11:53;1.73;;;1.42;;
966;SDS011;56108;48.730;9.304;2023-12-20T13:14:02;3.40;;;1.80;;
966;SDS011;56108;48.730;9.304;2023-12-20T13:16:12;3.20;;;1.38;;
966;SDS011;56108;48.730;9.304;2023-12-20T13:18:21;5.43;;;1.27;;
966;SDS011;56108;48.730;9.304;2023-12-20T13:20:29;1.67;;;1.27;;
966;SDS011;56108;48.730;9.304;2023-12-20T13:22:38;1.33;;;1.27;;
966;SDS011;56108;48.730;9.304;2023-12-20T13:24:49;3.30;;;1.05;;